Ouarzazate, Morocco
Current Conditions -  °F | °C
As of 11:00 AM on Thursday 27 Nov 2014 (Local Time) from GMMZ Reporting Station
Scattered Clouds Scattered Clouds  
Wind Chill: 50°   Ceiling: Unl
Heat Index: 50°   Visibility: 6mi
Dew Point: 41°   Wind: 2mph
Humidity: 71%   Direction: NA
Pressure: 29.8"   Gusts: NA
Location:  30.92°N, 6.9°W
Report Text: GMMZ 271000Z VRB02KT 9999 SCT030 10/05 Q1009 NOSIG
Loading
Personal Weather Stations






























Interactive Weather Map New forecast layout! Learn more

10-Day Weather Forecast

Advertisements
Track Severe Weather on mobile